createdAt,value
2023-03-29T00:01:46.141Z,9.95
2023-03-29T00:03:50.142Z,10.95
2023-03-29T00:05:57.772Z,6.25
2023-03-29T00:08:04.619Z,6.80
2023-03-29T00:10:10.264Z,8.10
2023-03-29T00:12:14.210Z,9.68
2023-03-29T00:14:17.716Z,3.83
2023-03-29T00:16:21.248Z,8.27
2023-03-29T00:18:25.221Z,7.60
2023-03-29T00:20:29.725Z,10.77
2023-03-29T00:22:33.460Z,8.07
2023-03-29T00:24:38.754Z,8.38
2023-03-29T00:26:42.498Z,9.10
2023-03-29T00:28:46.119Z,10.75
2023-03-29T00:30:50.804Z,9.82
2023-03-29T00:32:54.438Z,9.85
2023-03-29T00:34:58.089Z,8.93
2023-03-29T00:37:01.690Z,5.15
2023-03-29T00:39:05.594Z,9.68
2023-03-29T00:41:13.090Z,7.47
2023-03-29T00:43:17.335Z,8.30
2023-03-29T00:45:22.867Z,6.95
2023-03-29T00:47:31.044Z,8.63
2023-03-29T00:49:36.156Z,7.72
2023-03-29T00:51:42.859Z,8.98
2023-03-29T00:53:50.469Z,7.55
2023-03-29T00:55:58.599Z,12.93
2023-03-29T00:58:06.361Z,10.48
2023-03-29T01:00:14.299Z,9.00
2023-03-29T01:02:22.405Z,9.75
2023-03-29T01:04:31.200Z,9.32
2023-03-29T01:06:39.530Z,9.80
2023-03-29T01:08:49.178Z,8.50
2023-03-29T01:10:58.930Z,15.27
2023-03-29T01:13:10.158Z,8.48
2023-03-29T01:15:15.677Z,9.05
2023-03-29T01:17:22.285Z,12.52
2023-03-29T01:19:32.235Z,8.45
2023-03-29T01:21:41.040Z,10.18
2023-03-29T01:23:59.332Z,7.30
2023-03-29T01:26:12.747Z,8.25
2023-03-29T01:28:21.627Z,15.13
2023-03-29T01:30:31.884Z,10.45
2023-03-29T01:32:41.503Z,6.35
2023-03-29T01:34:51.750Z,9.40
2023-03-29T01:37:00.638Z,8.52
2023-03-29T01:39:07.357Z,8.05
2023-03-29T01:41:12.493Z,14.63
2023-03-29T01:45:30.669Z,11.73
2023-03-29T01:47:46.877Z,8.88
2023-03-29T01:49:58.830Z,7.35
2023-03-29T01:52:09.215Z,8.10
2023-03-29T01:54:18.154Z,12.48
2023-03-29T01:56:25.313Z,15.65
2023-03-29T01:58:35.243Z,17.10
2023-03-29T02:00:41.722Z,14.38
2023-03-29T02:02:48.965Z,13.38
2023-03-29T02:04:56.342Z,10.50
2023-03-29T02:07:03.261Z,11.93
2023-03-29T02:09:08.631Z,15.43
2023-03-29T02:13:16.187Z,10.38
2023-03-29T02:15:23.824Z,13.40
2023-03-29T02:17:29.478Z,8.27
2023-03-29T02:19:34.731Z,7.82
2023-03-29T02:21:48.564Z,11.18
2023-03-29T02:23:55.714Z,12.65
2023-03-29T02:25:59.056Z,9.38
2023-03-29T02:28:02.975Z,13.70
2023-03-29T02:30:11.016Z,13.20
2023-03-29T02:32:22.289Z,10.02
2023-03-29T02:34:30.889Z,14.52
2023-03-29T02:36:40.813Z,5.97
2023-03-29T02:38:45.030Z,11.63
2023-03-29T02:40:48.802Z,14.18
2023-03-29T02:42:52.245Z,8.93
2023-03-29T02:45:00.098Z,11.65
2023-03-29T02:47:07.883Z,8.57
2023-03-29T02:49:14.509Z,6.90
2023-03-29T02:51:21.382Z,8.65
2023-03-29T02:53:30.016Z,6.82
2023-03-29T02:55:35.543Z,10.38
2023-03-29T02:57:41.031Z,11.10
2023-03-29T02:59:45.175Z,9.88
2023-03-29T03:01:48.503Z,7.45
2023-03-29T03:03:52.888Z,4.30
2023-03-29T03:05:57.926Z,7.80
2023-03-29T03:08:02.761Z,9.57
2023-03-29T03:12:09.781Z,7.38
2023-03-29T03:14:13.111Z,12.43
2023-03-29T03:16:16.542Z,13.20
2023-03-29T03:18:19.872Z,11.38
2023-03-29T03:20:23.638Z,7.97
2023-03-29T03:22:28.373Z,10.90
2023-03-29T03:24:32.763Z,7.50
2023-03-29T03:26:38.298Z,11.27
2023-03-29T03:28:42.405Z,7.32
2023-03-29T03:30:54.269Z,10.40
2023-03-29T03:33:00.283Z,7.72
2023-03-29T03:35:26.523Z,12.07
2023-03-29T03:37:31.355Z,9.55
2023-03-29T03:41:39.622Z,7.72
2023-03-29T03:43:46.122Z,7.20
2023-03-29T03:45:49.476Z,4.53
2023-03-29T03:47:54.502Z,7.57
2023-03-29T03:50:20.391Z,8.25
2023-03-29T03:52:23.779Z,9.52
2023-03-29T03:54:28.697Z,7.00
2023-03-29T03:57:10.339Z,10.27
2023-03-29T03:59:22.517Z,7.70
2023-03-29T04:01:46.045Z,8.07
2023-03-29T04:03:53.403Z,13.43
2023-03-29T04:05:59.578Z,10.40
2023-03-29T04:08:23.549Z,6.78
2023-03-29T04:10:28.711Z,9.02
2023-03-29T04:12:52.596Z,10.27
2023-03-29T04:14:57.317Z,8.20
2023-03-29T04:17:02.925Z,8.88
2023-03-29T04:19:24.769Z,7.65
2023-03-29T04:21:28.175Z,3.88
2023-03-29T04:23:31.859Z,16.42
2023-03-29T04:25:37.145Z,4.38
2023-03-29T04:27:58.919Z,2.72
2023-03-29T04:30:20.041Z,3.58
2023-03-29T04:32:49.630Z,5.85
2023-03-29T04:34:53.604Z,4.35
2023-03-29T04:36:58.904Z,7.13
2023-03-29T04:39:02.375Z,7.05
2023-03-29T04:41:08.954Z,4.07
2023-03-29T04:43:32.623Z,3.58
2023-03-29T04:45:45.778Z,3.17
2023-03-29T04:48:01.022Z,4.20
2023-03-29T04:50:04.620Z,6.22
2023-03-29T04:52:15.893Z,8.32
2023-03-29T04:56:54.460Z,5.80
2023-03-29T04:59:16.656Z,9.07
2023-03-29T05:01:19.986Z,3.83
2023-03-29T05:03:32.126Z,3.30
2023-03-29T05:05:40.399Z,3.55
2023-03-29T05:07:44.392Z,1.02
2023-03-29T05:09:48.972Z,0.60
2023-03-29T05:11:53.719Z,0.28
2023-03-29T05:14:02.483Z,0.52
2023-03-29T05:16:11.309Z,0.65
2023-03-29T05:18:15.713Z,2.10
2023-03-29T05:20:19.266Z,1.55
2023-03-29T05:26:33.859Z,3.38
2023-03-29T05:28:38.791Z,2.20
2023-03-29T05:30:43.766Z,3.10
2023-03-29T05:32:55.766Z,1.27
2023-03-29T05:35:01.964Z,1.58
2023-03-29T05:37:05.832Z,2.25
2023-03-29T05:39:21.848Z,2.45
2023-03-29T05:41:25.842Z,2.65
2023-03-29T05:46:07.502Z,1.52
2023-03-29T05:48:12.662Z,1.13
2023-03-29T05:50:19.062Z,1.23
2023-03-29T05:52:22.477Z,2.70
2023-03-29T05:54:26.431Z,1.98
2023-03-29T05:56:30.517Z,3.15
2023-03-29T05:58:33.823Z,10.27
2023-03-29T06:00:38.936Z,3.28
2023-03-29T06:03:13.278Z,2.97
2023-03-29T06:05:22.352Z,4.00
2023-03-29T06:07:33.710Z,1.92
2023-03-29T06:09:56.034Z,5.28
2023-03-29T06:11:59.603Z,1.75
2023-03-29T06:14:13.613Z,5.63
2023-03-29T06:18:29.455Z,3.75
2023-03-29T06:20:33.612Z,3.60
2023-03-29T06:22:43.203Z,2.65
2023-03-29T06:24:48.318Z,5.93
2023-03-29T06:27:06.026Z,3.80
2023-03-29T06:29:10.397Z,2.70
2023-03-29T06:31:16.460Z,3.00
2023-03-29T06:33:21.825Z,2.00
2023-03-29T06:37:40.701Z,1.45
2023-03-29T06:39:54.782Z,1.38
2023-03-29T06:42:13.059Z,2.85
2023-03-29T06:44:44.014Z,3.92
2023-03-29T06:48:59.480Z,1.73
2023-03-29T06:51:10.304Z,1.40
2023-03-29T06:53:15.732Z,0.77
2023-03-29T06:55:24.938Z,1.33
2023-03-29T06:57:30.874Z,1.08
2023-03-29T06:59:35.145Z,0.70
2023-03-29T07:02:01.316Z,0.63
2023-03-29T07:04:24.796Z,5.35
2023-03-29T07:06:58.789Z,1.08
2023-03-29T07:09:02.558Z,0.90
2023-03-29T07:11:26.295Z,1.60
2023-03-29T07:13:33.146Z,2.28
2023-03-29T07:15:41.000Z,7.15
2023-03-29T07:17:53.974Z,3.72
2023-03-29T07:19:59.495Z,3.28
2023-03-29T07:22:21.259Z,4.88
2023-03-29T07:24:33.169Z,28.15
2023-03-29T07:26:37.174Z,5.60
2023-03-29T07:28:40.846Z,8.18
2023-03-29T07:30:44.660Z,2.20
2023-03-29T07:32:53.691Z,2.28
2023-03-29T07:35:08.247Z,3.55
2023-03-29T07:37:12.392Z,4.30
2023-03-29T07:39:22.600Z,5.22
2023-03-29T07:41:46.216Z,1.45
2023-03-29T07:43:52.087Z,3.53
2023-03-29T07:46:02.804Z,6.78
2023-03-29T07:48:08.744Z,3.15
2023-03-29T07:50:38.883Z,6.55
2023-03-29T07:52:44.660Z,3.17
2023-03-29T07:54:48.275Z,3.97
2023-03-29T07:56:58.710Z,3.90
2023-03-29T07:59:13.645Z,4.55
2023-03-29T08:01:20.690Z,2.67
2023-03-29T08:03:43.186Z,2.97
2023-03-29T08:05:49.613Z,3.53
2023-03-29T08:07:53.436Z,1.25
2023-03-29T08:10:18.820Z,4.18
2023-03-29T08:12:31.686Z,3.25
2023-03-29T08:14:36.866Z,4.20
2023-03-29T08:16:51.682Z,3.28
2023-03-29T08:18:57.072Z,4.10
2023-03-29T08:21:07.493Z,0.80
2023-03-29T08:23:11.565Z,1.70
2023-03-29T08:25:41.668Z,0.93
2023-03-29T08:27:46.964Z,4.65
2023-03-29T08:29:57.341Z,2.55
2023-03-29T08:32:00.995Z,1.98
2023-03-29T08:34:04.987Z,1.95
2023-03-29T08:36:26.628Z,3.83
2023-03-29T08:38:34.067Z,0.80
2023-03-29T08:40:38.411Z,1.33
2023-03-29T08:43:24.345Z,1.33
2023-03-29T08:46:04.534Z,0.90
2023-03-29T08:48:21.035Z,1.38
2023-03-29T08:50:33.890Z,0.32
2023-03-29T08:52:41.573Z,0.25
2023-03-29T08:55:17.556Z,1.67
2023-03-29T08:57:46.559Z,1.02
2023-03-29T08:59:59.168Z,1.15
2023-03-29T09:02:06.243Z,0.68
2023-03-29T09:04:13.254Z,0.52
2023-03-29T09:06:26.402Z,0.60
2023-03-29T09:08:41.270Z,0.47
2023-03-29T09:10:49.325Z,0.88
2023-03-29T09:13:05.554Z,1.27
2023-03-29T09:15:16.815Z,2.15
2023-03-29T09:17:44.980Z,1.50
2023-03-29T09:20:02.398Z,3.47
2023-03-29T09:22:17.920Z,0.75
2023-03-29T09:24:43.942Z,2.58
2023-03-29T09:26:58.589Z,1.80
2023-03-29T09:29:21.153Z,1.58
2023-03-29T09:31:30.437Z,3.42
2023-03-29T09:33:43.023Z,0.80
2023-03-29T09:36:05.256Z,2.10
2023-03-29T09:38:14.213Z,0.90
2023-03-29T09:40:24.132Z,2.63
2023-03-29T09:42:42.889Z,1.63
2023-03-29T09:44:52.861Z,0.85
2023-03-29T09:47:09.514Z,1.17
2023-03-29T09:49:21.933Z,0.55
2023-03-29T09:51:30.649Z,2.47
2023-03-29T09:53:34.432Z,1.25
2023-03-29T09:55:52.408Z,0.70
2023-03-29T09:58:14.739Z,2.88
2023-03-29T10:00:22.611Z,1.40
2023-03-29T10:02:31.204Z,1.05
2023-03-29T10:04:35.872Z,1.08
2023-03-29T10:08:52.887Z,1.20
2023-03-29T10:11:00.953Z,1.02
2023-03-29T10:13:08.247Z,0.73
2023-03-29T10:15:26.818Z,8.13
2023-03-29T10:17:42.961Z,6.55
2023-03-29T10:19:52.029Z,24.65
2023-03-29T10:21:56.663Z,0.60
2023-03-29T10:24:00.749Z,0.68
2023-03-29T10:26:08.856Z,5.95
2023-03-29T10:28:17.732Z,0.30
2023-03-29T10:30:24.596Z,5.93
2023-03-29T10:32:33.738Z,2.65
2023-03-29T10:34:37.994Z,0.52
2023-03-29T10:36:43.111Z,0.55
2023-03-29T10:38:46.617Z,0.52
2023-03-29T10:40:51.945Z,0.30
2023-03-29T10:43:00.730Z,0.47
2023-03-29T10:45:04.300Z,0.30
2023-03-29T10:47:16.414Z,0.47
2023-03-29T10:49:21.422Z,0.32
2023-03-29T10:51:27.907Z,0.45
2023-03-29T10:53:34.460Z,0.65
2023-03-29T10:55:44.191Z,1.55
2023-03-29T10:57:59.658Z,0.43
2023-03-29T11:00:11.583Z,1.02
2023-03-29T11:02:47.471Z,0.95
2023-03-29T11:07:21.610Z,0.43
2023-03-29T11:09:39.565Z,3.97
2023-03-29T11:12:15.506Z,0.50
2023-03-29T11:14:33.444Z,1.45
2023-03-29T11:16:43.381Z,0.40
2023-03-29T11:19:04.973Z,1.33
2023-03-29T11:21:19.194Z,0.60
2023-03-29T11:23:37.706Z,3.28
2023-03-29T11:25:54.749Z,1.45
2023-03-29T11:28:20.455Z,0.73
2023-03-29T11:30:36.435Z,0.55
2023-03-29T11:32:49.799Z,0.55
2023-03-29T11:35:02.684Z,1.00
2023-03-29T11:37:19.467Z,1.42
2023-03-29T11:39:35.263Z,0.90
2023-03-29T11:41:42.452Z,3.20
2023-03-29T11:43:50.496Z,1.40
2023-03-29T11:46:00.102Z,3.22
2023-03-29T11:48:07.724Z,2.35
2023-03-29T11:50:19.831Z,3.13
2023-03-29T11:52:29.242Z,4.20
2023-03-29T11:54:39.672Z,5.10
2023-03-29T11:56:47.087Z,2.63
2023-03-29T11:58:59.172Z,3.53
2023-03-29T12:01:09.411Z,7.78
2023-03-29T12:03:15.482Z,4.57
2023-03-29T12:05:24.492Z,4.60
2023-03-29T12:07:34.326Z,4.57
2023-03-29T12:09:42.441Z,2.60
2023-03-29T12:11:54.301Z,4.00
2023-03-29T12:14:05.093Z,4.65
2023-03-29T12:16:17.001Z,5.72
2023-03-29T12:18:25.596Z,5.15
2023-03-29T12:20:32.201Z,4.78
2023-03-29T12:22:39.262Z,13.05
2023-03-29T12:24:45.533Z,5.38
2023-03-29T12:27:10.831Z,6.07
2023-03-29T12:29:41.652Z,6.15
2023-03-29T12:31:56.537Z,7.10
2023-03-29T12:34:18.779Z,6.30
2023-03-29T12:37:02.173Z,7.45
2023-03-29T12:39:39.008Z,5.22
2023-03-29T12:42:15.058Z,8.13
2023-03-29T12:45:00.127Z,12.30
2023-03-29T12:47:19.286Z,9.27
2023-03-29T12:49:29.758Z,8.95
2023-03-29T12:51:35.274Z,9.95
2023-03-29T12:53:41.863Z,11.80
2023-03-29T12:55:52.401Z,11.30
2023-03-29T12:58:03.445Z,9.75
2023-03-29T13:00:14.390Z,11.43
2023-03-29T13:02:37.242Z,11.77
2023-03-29T13:04:52.419Z,16.63
2023-03-29T13:07:03.444Z,10.68
2023-03-29T13:09:22.373Z,10.82
2023-03-29T13:11:29.481Z,14.35
2023-03-29T13:13:37.611Z,9.20
2023-03-29T13:15:41.349Z,14.20
2023-03-29T13:17:54.250Z,12.80
2023-03-29T13:20:18.893Z,15.45
2023-03-29T13:22:35.872Z,17.95
2023-03-29T13:24:54.323Z,17.20
2023-03-29T13:27:04.454Z,16.50
2023-03-29T13:29:31.350Z,14.68
2023-03-29T13:31:44.652Z,16.33
2023-03-29T13:33:58.855Z,9.68
2023-03-29T13:36:07.410Z,17.73
2023-03-29T13:38:20.397Z,18.98
2023-03-29T13:40:44.424Z,18.10
2023-03-29T13:43:00.136Z,20.65
2023-03-29T13:45:13.951Z,18.73
2023-03-29T13:47:55.003Z,16.95
2023-03-29T13:50:07.795Z,10.45
2023-03-29T13:52:17.395Z,16.58
2023-03-29T13:54:29.310Z,13.18
2023-03-29T13:56:40.010Z,18.48
2023-03-29T14:00:55.967Z,17.65
2023-03-29T14:03:02.296Z,19.70
2023-03-29T14:05:11.051Z,21.00
2023-03-29T14:07:16.384Z,13.80
2023-03-29T14:09:21.619Z,12.95
2023-03-29T14:11:28.659Z,18.67
2023-03-29T14:13:32.403Z,17.08
2023-03-29T14:15:46.113Z,20.48
2023-03-29T14:17:50.079Z,17.25
2023-03-29T14:19:55.584Z,17.08
2023-03-29T14:22:02.545Z,15.27
2023-03-29T14:24:07.030Z,12.20
2023-03-29T14:26:15.643Z,21.42
2023-03-29T14:28:25.538Z,14.00
2023-03-29T14:30:32.323Z,23.50
2023-03-29T14:32:39.893Z,20.17
2023-03-29T14:34:44.621Z,19.70
2023-03-29T14:36:50.488Z,19.48
2023-03-29T14:38:59.884Z,19.88
2023-03-29T14:41:04.837Z,19.67
2023-03-29T14:45:18.775Z,14.07
2023-03-29T14:47:27.706Z,18.58
2023-03-29T14:49:34.185Z,17.92
2023-03-29T14:51:41.543Z,16.70
2023-03-29T14:53:47.393Z,16.95
2023-03-29T14:55:53.685Z,13.30
2023-03-29T14:57:58.376Z,14.38
2023-03-29T15:02:25.123Z,15.65
2023-03-29T15:04:34.638Z,13.90
2023-03-29T15:06:40.483Z,14.73
2023-03-29T15:08:54.390Z,21.17
2023-03-29T15:11:16.590Z,20.13
2023-03-29T15:13:25.115Z,16.67
2023-03-29T15:15:28.904Z,15.05
2023-03-29T15:17:47.621Z,21.38
2023-03-29T15:20:01.904Z,19.67
2023-03-29T15:22:11.631Z,18.73
2023-03-29T15:24:24.578Z,18.85
2023-03-29T15:26:32.368Z,18.90
2023-03-29T15:28:47.091Z,16.15
2023-03-29T15:31:04.734Z,14.80
2023-03-29T15:33:26.726Z,22.70
2023-03-29T15:35:30.875Z,18.85
2023-03-29T15:37:34.331Z,25.35
2023-03-29T15:39:44.198Z,12.38
2023-03-29T15:41:51.694Z,18.20
2023-03-29T15:43:55.840Z,20.02
2023-03-29T15:45:59.539Z,24.40
2023-03-29T15:48:05.033Z,16.73
2023-03-29T15:50:09.717Z,20.60
2023-03-29T15:52:13.552Z,16.35
2023-03-29T15:54:17.424Z,17.40
2023-03-29T15:56:24.007Z,20.90
2023-03-29T15:58:33.618Z,19.15
2023-03-29T16:00:40.947Z,22.23
2023-03-29T16:02:44.592Z,15.90
2023-03-29T16:04:48.219Z,17.77
2023-03-29T16:06:54.112Z,17.85
2023-03-29T16:08:59.096Z,15.30
2023-03-29T16:11:02.844Z,15.52
2023-03-29T16:13:06.617Z,19.08
2023-03-29T16:15:18.266Z,17.55
2023-03-29T16:17:21.758Z,17.35
2023-03-29T16:19:26.725Z,14.68
2023-03-29T16:23:33.758Z,22.95
2023-03-29T16:25:40.044Z,21.48
2023-03-29T16:27:43.998Z,13.60
2023-03-29T16:29:47.718Z,19.60
2023-03-29T16:31:53.927Z,18.77
2023-03-29T16:33:57.538Z,17.70
2023-03-29T16:36:02.007Z,16.75
2023-03-29T16:38:06.792Z,18.13
2023-03-29T16:40:12.750Z,12.98
2023-03-29T16:42:16.589Z,18.80
2023-03-29T16:44:23.753Z,15.88
2023-03-29T16:46:27.827Z,18.95
2023-03-29T16:48:33.381Z,20.55
2023-03-29T16:50:36.977Z,19.70
2023-03-29T16:52:40.868Z,20.10
2023-03-29T16:54:44.435Z,20.40
2023-03-29T16:56:48.537Z,20.35
2023-03-29T16:58:52.724Z,19.52
2023-03-29T17:00:57.196Z,11.27
2023-03-29T17:03:02.015Z,16.60
2023-03-29T17:05:07.968Z,14.23
2023-03-29T17:07:11.425Z,26.90
2023-03-29T17:09:16.308Z,17.10
2023-03-29T17:13:27.517Z,17.98
2023-03-29T17:15:31.304Z,18.27
2023-03-29T17:17:35.239Z,12.65
2023-03-29T17:19:38.895Z,19.42
2023-03-29T17:21:44.316Z,12.63
2023-03-29T17:23:47.819Z,12.57
2023-03-29T17:25:51.433Z,17.55
2023-03-29T17:27:55.261Z,17.75
2023-03-29T17:29:59.189Z,14.90
2023-03-29T17:32:02.848Z,18.92
2023-03-29T17:34:06.326Z,25.58
2023-03-29T17:36:10.959Z,17.80
2023-03-29T17:38:16.075Z,18.27
2023-03-29T17:40:19.836Z,16.08
2023-03-29T17:42:23.336Z,18.50
2023-03-29T17:44:27.152Z,18.58
2023-03-29T17:46:31.274Z,18.75
2023-03-29T17:48:34.902Z,17.33
2023-03-29T17:50:38.385Z,19.50
2023-03-29T17:52:42.153Z,20.55
2023-03-29T17:54:47.149Z,16.63
2023-03-29T17:56:50.932Z,18.00
2023-03-29T17:58:54.988Z,15.95
2023-03-29T18:00:59.045Z,28.98
2023-03-29T18:03:03.306Z,17.13
2023-03-29T18:05:08.490Z,19.73
2023-03-29T18:07:15.188Z,23.63
2023-03-29T18:09:19.507Z,18.33
2023-03-29T18:11:25.754Z,116.22
2023-03-29T18:13:34.054Z,65.53
2023-03-29T18:15:38.708Z,24.08
2023-03-29T18:17:48.145Z,17.50
2023-03-29T18:19:53.248Z,170.05
2023-03-29T18:21:57.764Z,55.17
2023-03-29T18:24:01.660Z,58.17
2023-03-29T18:26:08.486Z,14.35
2023-03-29T18:28:14.713Z,62.20
2023-03-29T18:30:18.740Z,65.97
2023-03-29T18:32:22.525Z,20.23
2023-03-29T18:34:26.594Z,18.60
2023-03-29T18:36:30.857Z,38.97
2023-03-29T18:38:36.011Z,14.25
2023-03-29T18:40:39.636Z,33.40
2023-03-29T18:42:43.666Z,31.60
2023-03-29T18:44:48.731Z,76.97
2023-03-29T18:46:52.520Z,18.90
2023-03-29T18:48:57.512Z,56.08
2023-03-29T18:53:06.209Z,54.20
2023-03-29T18:55:10.770Z,31.85
2023-03-29T18:57:14.658Z,31.17
2023-03-29T18:59:18.731Z,43.78
2023-03-29T19:01:23.774Z,20.88
2023-03-29T19:03:27.846Z,52.35
2023-03-29T19:05:31.490Z,43.75
2023-03-29T19:07:35.172Z,18.65
2023-03-29T19:09:38.770Z,43.55
2023-03-29T19:11:42.440Z,144.70
2023-03-29T19:13:50.268Z,85.32
2023-03-29T19:15:55.625Z,58.65
2023-03-29T19:18:00.770Z,37.47
2023-03-29T19:20:10.071Z,38.33
2023-03-29T19:22:13.740Z,47.50
2023-03-29T19:24:17.941Z,15.88
2023-03-29T19:26:21.937Z,12.18
2023-03-29T19:28:26.551Z,48.72
2023-03-29T19:30:30.181Z,17.67
2023-03-29T19:32:33.959Z,19.67
2023-03-29T19:34:39.675Z,35.47
2023-03-29T19:36:43.397Z,35.50
2023-03-29T19:38:47.111Z,71.38
2023-03-29T19:40:52.256Z,16.08
2023-03-29T19:42:56.140Z,40.25
2023-03-29T19:45:00.290Z,31.00
2023-03-29T19:47:04.301Z,19.20
2023-03-29T19:49:09.273Z,18.27
2023-03-29T19:51:14.492Z,88.93
2023-03-29T19:53:18.835Z,19.88
2023-03-29T19:55:23.016Z,14.27
2023-03-29T19:57:28.652Z,66.82
2023-03-29T19:59:32.490Z,15.80
2023-03-29T20:01:39.753Z,320.67
2023-03-29T20:03:43.851Z,396.02
2023-03-29T20:05:48.622Z,165.27
2023-03-29T20:07:54.579Z,58.78
2023-03-29T20:09:58.910Z,39.42
2023-03-29T20:12:02.797Z,28.63
2023-03-29T20:14:06.584Z,13.95
2023-03-29T20:16:12.222Z,19.85
2023-03-29T20:18:16.701Z,63.33
2023-03-29T20:20:21.457Z,91.70
2023-03-29T20:22:26.266Z,78.90
2023-03-29T20:24:32.801Z,44.63
2023-03-29T20:26:37.154Z,134.82
2023-03-29T20:28:41.170Z,101.53
2023-03-29T20:30:45.165Z,25.38
2023-03-29T20:32:48.891Z,102.07
2023-03-29T20:34:52.796Z,23.48
2023-03-29T20:37:01.139Z,37.30
2023-03-29T20:39:05.730Z,95.95
2023-03-29T20:41:11.002Z,28.42
2023-03-29T20:43:18.539Z,19.92
2023-03-29T20:45:22.263Z,32.53
2023-03-29T20:47:27.798Z,33.38
2023-03-29T20:49:37.639Z,66.90
2023-03-29T20:51:42.966Z,39.58
2023-03-29T20:53:46.878Z,30.77
2023-03-29T20:55:50.634Z,14.95
2023-03-29T20:57:57.022Z,19.33
2023-03-29T21:00:01.983Z,23.73
2023-03-29T21:04:11.151Z,17.63
2023-03-29T21:06:15.352Z,24.60
2023-03-29T21:08:19.137Z,14.45
2023-03-29T21:10:23.917Z,20.73
2023-03-29T21:12:27.955Z,16.45
2023-03-29T21:14:33.864Z,14.88
2023-03-29T21:16:41.848Z,15.00
2023-03-29T21:18:45.839Z,15.20
2023-03-29T21:20:49.950Z,11.45
2023-03-29T21:22:53.667Z,15.82
2023-03-29T21:24:57.408Z,17.05
2023-03-29T21:27:01.623Z,16.00
2023-03-29T21:29:05.475Z,9.57
2023-03-29T21:31:11.783Z,19.23
2023-03-29T21:33:15.664Z,12.38
2023-03-29T21:35:19.548Z,11.75
2023-03-29T21:37:23.631Z,31.50
2023-03-29T21:39:27.669Z,20.10
2023-03-29T21:41:31.613Z,15.48
2023-03-29T21:43:35.297Z,11.65
2023-03-29T21:45:39.254Z,15.75
2023-03-29T21:47:44.466Z,13.48
2023-03-29T21:49:48.126Z,14.10
2023-03-29T21:51:51.708Z,14.30
2023-03-29T21:53:55.359Z,19.65
2023-03-29T21:55:59.106Z,15.32
2023-03-29T21:58:02.745Z,16.73
2023-03-29T22:00:11.238Z,17.15
2023-03-29T22:02:15.142Z,17.63
2023-03-29T22:04:33.124Z,25.33
2023-03-29T22:06:37.168Z,13.60
2023-03-29T22:08:40.709Z,14.82
2023-03-29T22:10:44.242Z,10.50
2023-03-29T22:12:48.212Z,17.38
2023-03-29T22:14:51.692Z,19.92
2023-03-29T22:16:55.395Z,17.67
2023-03-29T22:18:59.642Z,14.82
2023-03-29T22:21:05.731Z,10.85
2023-03-29T22:23:09.554Z,21.20
2023-03-29T22:25:13.665Z,18.42
2023-03-29T22:27:17.284Z,20.08
2023-03-29T22:29:21.141Z,20.33
2023-03-29T22:31:26.192Z,11.23
2023-03-29T22:33:29.906Z,13.48
2023-03-29T22:35:35.884Z,11.80
2023-03-29T22:37:43.957Z,18.08
2023-03-29T22:39:47.675Z,15.68
2023-03-29T22:41:51.595Z,17.17
2023-03-29T22:43:57.101Z,17.70
2023-03-29T22:46:00.530Z,20.70
2023-03-29T22:48:04.212Z,23.40
2023-03-29T22:50:08.966Z,17.67
2023-03-29T22:52:12.514Z,18.05
2023-03-29T22:54:17.474Z,15.55
2023-03-29T22:58:24.259Z,17.25
2023-03-29T23:00:27.880Z,21.35
2023-03-29T23:02:31.514Z,29.35
2023-03-29T23:04:36.802Z,21.50
2023-03-29T23:06:40.316Z,17.40
2023-03-29T23:08:43.809Z,17.58
2023-03-29T23:10:49.124Z,18.52
2023-03-29T23:12:53.889Z,19.02
2023-03-29T23:14:57.252Z,11.75
2023-03-29T23:17:00.823Z,18.85
2023-03-29T23:19:05.070Z,21.05
2023-03-29T23:21:10.630Z,18.15
2023-03-29T23:23:14.586Z,15.77
2023-03-29T23:25:18.148Z,19.70
2023-03-29T23:27:23.009Z,26.65
2023-03-29T23:31:30.023Z,12.68
2023-03-29T23:33:35.869Z,13.25
2023-03-29T23:35:39.503Z,9.98
2023-03-29T23:37:43.290Z,15.60
2023-03-29T23:39:46.750Z,12.32
2023-03-29T23:41:50.340Z,17.52
2023-03-29T23:43:57.843Z,17.27
2023-03-29T23:46:02.638Z,9.82
2023-03-29T23:48:06.534Z,16.98
2023-03-29T23:50:12.172Z,11.40
2023-03-29T23:52:15.691Z,15.10
2023-03-29T23:54:19.119Z,11.20
2023-03-29T23:56:23.112Z,9.82
2023-03-29T23:58:26.703Z,12.77
